KDSM/DSM METAR and TAF weather

Enter ICAO airport designator
Station Type Date Time Source
KDSM METAR 2021/09/16 20:54 UTC NOAA

KDSM 162054Z 18014KT 10SM FEW050 31/17 A2988 RMK AO2 SLP110 T03060172 58019


Station Type Date Time Source
KDSM Decoded METAR 2021/09/16 20:54 UTC NOAA

DES MOINES INTERNATIONAL, IA, United States (KDSM) 41-32N 93-40W 295M
Sep 16, 2021 - 04:54 PM EDT / 2021.09.16 2054 UTC
Wind: from the S (180 degrees) at 16 MPH (14 KT):0
Visibility: 10 mile(s):0
Sky conditions: mostly clear
Temperature: 87.1 F (30.6 C)
Dew Point: 63.0 F (17.2 C)
Relative Humidity: 44%
Pressure (altimeter): 29.88 in. Hg (1011 hPa)
Pressure tendency: 0.06 inches (1.9 hPa) lower than three hours ago
ob: KDSM 162054Z 18014KT 10SM FEW050 31/17 A2988 RMK AO2 SLP110 T03060172 58019
cycle: 21

Station Type Date Time Source
KDSM TAF 2021/09/16 18:33 UTC NOAA

TAF KDSM 161730Z 1618/1718 19012G21KT P6SM SKC
FM161900 18014G22KT P6SM SKC
FM162300 18013KT P6SM SKC
FM170900 18007KT P6SM SKC WS020/21035KT
FM171100 18004KT P6SM BKN120
FM171300 21005KT P6SM VCSH BKN040

Example: see airport list